createdAt,value
2023-04-25T00:00:22.151Z,2.22
2023-04-25T00:02:50.003Z,2.40
2023-04-25T00:05:20.563Z,2.90
2023-04-25T00:07:48.189Z,2.22
2023-04-25T00:10:15.860Z,3.15
2023-04-25T00:12:43.695Z,3.58
2023-04-25T00:15:12.219Z,1.80
2023-04-25T00:17:40.272Z,2.20
2023-04-25T00:20:10.221Z,3.72
2023-04-25T00:22:39.457Z,4.55
2023-04-25T00:25:08.285Z,2.03
2023-04-25T00:27:35.885Z,2.20
2023-04-25T00:30:03.561Z,4.88
2023-04-25T00:32:31.209Z,2.50
2023-04-25T00:34:59.479Z,3.17
2023-04-25T00:37:27.103Z,2.80
2023-04-25T00:39:56.899Z,2.35
2023-04-25T00:42:24.497Z,2.63
2023-04-25T00:44:53.471Z,3.30
2023-04-25T00:47:21.353Z,4.00
2023-04-25T00:49:49.082Z,2.08
2023-04-25T00:52:16.644Z,2.60
2023-04-25T00:54:44.708Z,4.53
2023-04-25T00:57:13.912Z,2.20
2023-04-25T00:59:46.134Z,2.80
2023-04-25T01:02:14.303Z,2.65
2023-04-25T01:04:42.166Z,1.90
2023-04-25T01:07:10.134Z,3.08
2023-04-25T01:09:37.708Z,2.25
2023-04-25T01:12:05.853Z,1.40
2023-04-25T01:14:34.972Z,3.85
2023-04-25T01:17:03.455Z,2.33
2023-04-25T01:19:31.804Z,2.22
2023-04-25T01:22:00.787Z,5.25
2023-04-25T01:24:28.819Z,2.00
2023-04-25T01:26:57.929Z,4.05
2023-04-25T01:29:27.423Z,1.73
2023-04-25T01:31:55.486Z,3.45
2023-04-25T01:34:23.377Z,7.63
2023-04-25T01:36:52.300Z,4.55
2023-04-25T01:39:21.872Z,3.63
2023-04-25T01:41:49.831Z,3.15
2023-04-25T01:48:29.594Z,2.63
2023-04-25T01:50:57.483Z,3.20
2023-04-25T01:53:25.958Z,3.53
2023-04-25T01:55:55.886Z,3.47
2023-04-25T01:58:26.434Z,3.25
2023-04-25T02:01:05.184Z,2.60
2023-04-25T02:03:41.203Z,4.30
2023-04-25T02:06:14.559Z,3.42
2023-04-25T02:08:45.369Z,2.67
2023-04-25T02:11:16.074Z,3.85
2023-04-25T02:13:49.984Z,2.55
2023-04-25T02:16:26.328Z,2.30
2023-04-25T02:18:54.917Z,2.90
2023-04-25T02:21:22.453Z,5.13
2023-04-25T02:23:53.187Z,3.03
2023-04-25T02:26:24.576Z,2.92
2023-04-25T02:28:52.875Z,2.90
2023-04-25T02:31:21.217Z,2.33
2023-04-25T02:33:49.680Z,3.15
2023-04-25T02:36:17.398Z,2.72
2023-04-25T02:38:44.936Z,3.03
2023-04-25T02:41:12.565Z,3.42
2023-04-25T02:43:41.480Z,3.83
2023-04-25T02:46:09.282Z,3.40
2023-04-25T02:48:36.813Z,4.28
2023-04-25T02:51:04.718Z,3.88
2023-04-25T02:53:32.487Z,3.20
2023-04-25T02:56:00.201Z,3.03
2023-04-25T02:58:27.737Z,4.03
2023-04-25T03:00:56.924Z,2.15
2023-04-25T03:03:24.785Z,2.40
2023-04-25T03:05:53.735Z,2.67
2023-04-25T03:08:27.799Z,2.72
2023-04-25T03:10:56.522Z,2.80
2023-04-25T03:13:24.494Z,2.20
2023-04-25T03:15:52.089Z,3.45
2023-04-25T03:18:21.694Z,2.78
2023-04-25T03:20:49.291Z,2.83
2023-04-25T03:23:16.835Z,3.42
2023-04-25T03:25:44.608Z,3.60
2023-04-25T03:28:12.235Z,2.95
2023-04-25T03:30:39.850Z,3.95
2023-04-25T03:33:07.931Z,3.47
2023-04-25T03:35:37.035Z,3.92
2023-04-25T03:38:04.873Z,2.90
2023-04-25T03:40:37.291Z,3.38
2023-04-25T03:43:19.424Z,2.35
2023-04-25T03:45:54.120Z,2.70
2023-04-25T03:48:25.530Z,3.42
2023-04-25T03:50:55.097Z,2.53
2023-04-25T03:53:22.710Z,2.88
2023-04-25T03:56:08.959Z,3.35
2023-04-25T03:58:38.553Z,2.83
2023-04-25T04:01:08.657Z,3.55
2023-04-25T04:03:40.409Z,2.88
2023-04-25T04:06:10.225Z,2.85
2023-04-25T04:08:40.936Z,3.87
2023-04-25T04:11:09.787Z,2.80
2023-04-25T04:13:38.199Z,2.88
2023-04-25T04:16:07.353Z,3.80
2023-04-25T04:18:35.451Z,2.95
2023-04-25T04:21:03.151Z,2.92
2023-04-25T04:23:36.178Z,4.72
2023-04-25T04:26:05.993Z,3.67
2023-04-25T04:29:00.238Z,5.97
2023-04-25T04:31:39.126Z,3.45
2023-04-25T04:34:07.238Z,2.50
2023-04-25T04:36:36.308Z,2.80
2023-04-25T04:39:07.640Z,2.85
2023-04-25T04:41:44.767Z,5.43
2023-04-25T04:44:16.696Z,2.72
2023-04-25T04:46:51.417Z,3.22
2023-04-25T04:49:27.995Z,3.33
2023-04-25T04:52:19.395Z,2.70
2023-04-25T04:54:54.316Z,2.50
2023-04-25T04:57:36.759Z,2.55
2023-04-25T05:00:29.767Z,2.83
2023-04-25T05:03:33.144Z,2.70
2023-04-25T05:06:03.501Z,3.10
2023-04-25T05:08:44.752Z,2.78
2023-04-25T05:11:33.931Z,2.38
2023-04-25T05:14:19.559Z,3.38
2023-04-25T05:16:47.209Z,2.65
2023-04-25T05:19:22.785Z,2.00
2023-04-25T05:22:10.623Z,5.53
2023-04-25T05:24:56.767Z,3.45
2023-04-25T05:27:48.672Z,2.58
2023-04-25T05:30:40.149Z,3.58
2023-04-25T05:33:12.266Z,7.65
2023-04-25T05:35:40.437Z,2.13
2023-04-25T05:38:08.008Z,2.42
2023-04-25T05:40:55.738Z,2.50
2023-04-25T05:43:46.107Z,2.85
2023-04-25T05:46:34.402Z,3.03
2023-04-25T05:49:17.551Z,3.15
2023-04-25T05:52:20.227Z,7.63
2023-04-25T05:55:01.998Z,8.32
2023-04-25T05:57:32.117Z,6.10
2023-04-25T06:00:01.485Z,4.32
2023-04-25T06:02:41.177Z,2.40
2023-04-25T06:05:10.862Z,2.42
2023-04-25T06:07:38.829Z,1.95
2023-04-25T06:10:08.149Z,2.78
2023-04-25T06:12:35.749Z,2.10
2023-04-25T06:15:20.163Z,2.03
2023-04-25T06:17:54.590Z,2.42
2023-04-25T06:20:24.860Z,3.70
2023-04-25T06:22:53.872Z,3.65
2023-04-25T06:25:26.737Z,14.00
2023-04-25T06:27:55.294Z,3.35
2023-04-25T06:30:26.615Z,4.15
2023-04-25T06:32:58.542Z,3.67
2023-04-25T06:35:26.403Z,3.58
2023-04-25T06:37:54.453Z,3.22
2023-04-25T06:40:24.539Z,3.70
2023-04-25T06:42:52.561Z,2.17
2023-04-25T06:45:41.934Z,4.40
2023-04-25T06:48:10.292Z,5.03
2023-04-25T06:50:38.749Z,3.83
2023-04-25T06:53:06.690Z,3.50
2023-04-25T06:55:35.758Z,2.90
2023-04-25T06:58:19.713Z,3.20
2023-04-25T07:01:05.888Z,3.20
2023-04-25T07:03:34.562Z,3.05
2023-04-25T07:06:08.563Z,3.08
2023-04-25T07:08:36.319Z,4.07
2023-04-25T07:11:03.935Z,2.95
2023-04-25T07:13:31.529Z,4.60
2023-04-25T07:15:59.755Z,3.53
2023-04-25T07:18:30.755Z,3.47
2023-04-25T07:20:58.625Z,4.43
2023-04-25T07:23:28.314Z,3.20
2023-04-25T07:25:56.854Z,3.28
2023-04-25T07:28:26.785Z,4.20
2023-04-25T07:30:54.686Z,4.72
2023-04-25T07:33:22.330Z,4.55
2023-04-25T07:35:51.396Z,5.68
2023-04-25T07:38:19.399Z,4.47
2023-04-25T07:40:49.367Z,4.88
2023-04-25T07:43:18.395Z,2.75
2023-04-25T07:46:00.402Z,5.18
2023-04-25T07:48:31.472Z,3.90
2023-04-25T07:51:00.632Z,3.42
2023-04-25T07:53:28.528Z,3.95
2023-04-25T07:56:01.321Z,4.30
2023-04-25T07:58:32.248Z,3.63
2023-04-25T08:01:02.605Z,2.67
2023-04-25T08:03:36.351Z,3.72
2023-04-25T08:06:09.428Z,5.10
2023-04-25T08:08:46.142Z,4.22
2023-04-25T08:11:18.033Z,4.55
2023-04-25T08:13:45.733Z,4.90
2023-04-25T08:16:13.955Z,4.75
2023-04-25T08:18:42.168Z,4.30
2023-04-25T08:21:13.291Z,5.43
2023-04-25T08:23:42.364Z,6.50
2023-04-25T08:26:46.779Z,5.00
2023-04-25T08:29:17.720Z,4.28
2023-04-25T08:31:46.392Z,5.07
2023-04-25T08:34:16.099Z,6.13
2023-04-25T08:36:47.705Z,5.30
2023-04-25T08:39:34.118Z,6.80
2023-04-25T08:42:21.325Z,5.88
2023-04-25T08:44:50.420Z,6.43
2023-04-25T08:47:23.666Z,7.63
2023-04-25T08:49:56.985Z,5.90
2023-04-25T08:52:29.251Z,8.55
2023-04-25T08:54:58.978Z,7.43
2023-04-25T08:57:29.559Z,7.82
2023-04-25T08:59:59.312Z,7.38
2023-04-25T09:02:27.279Z,6.88
2023-04-25T09:04:56.294Z,8.23
2023-04-25T09:07:26.632Z,6.72
2023-04-25T09:09:55.625Z,7.57
2023-04-25T09:12:24.591Z,7.57
2023-04-25T09:15:07.339Z,6.90
2023-04-25T09:18:07.931Z,8.68
2023-04-25T09:23:16.888Z,6.78
2023-04-25T09:25:44.739Z,8.10
2023-04-25T09:28:13.148Z,7.78
2023-04-25T09:30:41.106Z,7.18
2023-04-25T09:33:16.296Z,7.40
2023-04-25T09:35:55.088Z,4.78
2023-04-25T09:38:44.772Z,4.10
2023-04-25T09:41:35.703Z,3.92
2023-04-25T09:44:04.388Z,5.35
2023-04-25T09:46:37.510Z,13.40
2023-04-25T09:49:08.959Z,6.93
2023-04-25T09:51:56.082Z,4.50
2023-04-25T09:54:26.298Z,3.80
2023-04-25T09:57:13.112Z,4.28
2023-04-25T09:59:45.049Z,4.13
2023-04-25T10:02:13.713Z,5.95
2023-04-25T10:04:43.331Z,10.00
2023-04-25T10:07:21.881Z,7.93
2023-04-25T10:09:51.758Z,5.20
2023-04-25T10:12:19.875Z,4.65
2023-04-25T10:14:48.554Z,4.50
2023-04-25T10:17:16.488Z,5.03
2023-04-25T10:19:44.301Z,4.63
2023-04-25T10:22:16.784Z,11.57
2023-04-25T10:24:47.181Z,6.10
2023-04-25T10:27:16.505Z,6.60
2023-04-25T10:29:45.291Z,5.10
2023-04-25T10:32:14.788Z,4.80
2023-04-25T10:34:44.538Z,5.75
2023-04-25T10:37:15.284Z,4.70
2023-04-25T10:39:44.710Z,6.70
2023-04-25T10:42:13.391Z,6.40
2023-04-25T10:44:42.315Z,7.35
2023-04-25T10:47:13.098Z,6.45
2023-04-25T10:49:44.477Z,7.03
2023-04-25T10:52:20.401Z,5.93
2023-04-25T10:54:54.135Z,8.90
2023-04-25T10:57:32.372Z,6.72
2023-04-25T11:00:12.798Z,8.23
2023-04-25T11:02:44.076Z,8.25
2023-04-25T11:05:12.066Z,7.15
2023-04-25T11:07:52.917Z,8.48
2023-04-25T11:10:28.227Z,5.40
2023-04-25T11:12:56.005Z,5.82
2023-04-25T11:15:25.364Z,6.22
2023-04-25T11:17:53.416Z,6.50
2023-04-25T11:20:21.418Z,5.95
2023-04-25T11:22:51.011Z,4.25
2023-04-25T11:25:21.000Z,4.25
2023-04-25T11:27:52.960Z,4.63
2023-04-25T11:30:22.090Z,4.25
2023-04-25T11:32:52.889Z,4.32
2023-04-25T11:35:21.093Z,4.40
2023-04-25T11:37:48.886Z,4.90
2023-04-25T11:40:16.784Z,6.75
2023-04-25T11:42:46.778Z,8.55
2023-04-25T11:45:15.731Z,4.57
2023-04-25T11:47:44.286Z,4.28
2023-04-25T11:50:15.095Z,5.53
2023-04-25T11:52:44.659Z,4.40
2023-04-25T11:55:15.565Z,4.20
2023-04-25T11:57:44.080Z,5.20
2023-04-25T12:00:17.579Z,3.70
2023-04-25T12:02:48.457Z,3.47
2023-04-25T12:07:48.833Z,4.18
2023-04-25T12:10:18.315Z,3.55
2023-04-25T12:12:47.845Z,5.13
2023-04-25T12:15:18.345Z,4.10
2023-04-25T12:17:47.278Z,6.43
2023-04-25T12:20:16.785Z,6.38
2023-04-25T12:22:47.571Z,7.43
2023-04-25T12:25:35.395Z,7.28
2023-04-25T12:28:14.103Z,8.73
2023-04-25T12:30:59.371Z,6.00
2023-04-25T12:33:28.319Z,10.18
2023-04-25T12:35:55.899Z,7.10
2023-04-25T12:38:30.309Z,11.50
2023-04-25T12:40:58.542Z,7.72
2023-04-25T12:43:26.300Z,8.40
2023-04-25T12:45:55.937Z,8.85
2023-04-25T12:48:24.670Z,8.05
2023-04-25T12:50:53.107Z,7.75
2023-04-25T12:53:21.949Z,8.18
2023-04-25T12:55:51.624Z,7.93
2023-04-25T12:58:20.989Z,7.30
2023-04-25T13:00:48.800Z,6.57
2023-04-25T13:03:16.512Z,7.90
2023-04-25T13:05:44.444Z,5.95
2023-04-25T13:08:12.335Z,6.47
2023-04-25T13:10:40.377Z,4.32
2023-04-25T13:13:09.495Z,5.95
2023-04-25T13:15:37.469Z,6.18
2023-04-25T13:18:06.429Z,8.23
2023-04-25T13:20:34.298Z,8.00
2023-04-25T13:23:02.880Z,7.40
2023-04-25T13:25:30.628Z,3.78
2023-04-25T13:27:58.280Z,3.95
2023-04-25T13:30:27.156Z,5.43
2023-04-25T13:32:57.228Z,3.38
2023-04-25T13:35:25.112Z,2.70
2023-04-25T13:37:52.671Z,6.60
2023-04-25T13:40:20.316Z,4.55
2023-04-25T13:42:47.891Z,3.90
2023-04-25T13:45:15.807Z,4.93
2023-04-25T13:47:44.896Z,4.65
2023-04-25T13:50:12.742Z,3.08
2023-04-25T13:52:40.396Z,2.90
2023-04-25T13:55:09.512Z,3.00
2023-04-25T13:57:39.365Z,3.50
2023-04-25T14:00:10.940Z,3.75
2023-04-25T14:02:38.652Z,8.75
2023-04-25T14:05:08.961Z,4.03
2023-04-25T14:07:36.777Z,3.92
2023-04-25T14:10:05.123Z,3.45
2023-04-25T14:12:33.087Z,2.30
2023-04-25T14:15:00.981Z,2.47
2023-04-25T14:17:28.763Z,3.17
2023-04-25T14:19:56.387Z,3.17
2023-04-25T14:22:26.566Z,4.93
2023-04-25T14:24:54.250Z,3.72
2023-04-25T14:27:21.925Z,4.43
2023-04-25T14:29:49.697Z,3.58
2023-04-25T14:32:17.316Z,6.60
2023-04-25T14:34:44.862Z,4.30
2023-04-25T14:37:12.474Z,3.63
2023-04-25T14:39:41.373Z,3.33
2023-04-25T14:42:09.733Z,4.45
2023-04-25T14:44:37.677Z,6.05
2023-04-25T14:47:11.242Z,3.58
2023-04-25T14:49:38.870Z,2.38
2023-04-25T14:52:06.418Z,4.45
2023-04-25T14:54:33.995Z,3.95
2023-04-25T14:57:05.151Z,4.40
2023-04-25T14:59:32.850Z,4.15
2023-04-25T15:02:00.440Z,5.35
2023-04-25T15:04:28.556Z,2.38
2023-04-25T15:06:56.937Z,2.45
2023-04-25T15:09:26.021Z,4.57
2023-04-25T15:11:53.591Z,4.40
2023-04-25T15:14:22.558Z,2.35
2023-04-25T15:16:50.114Z,4.07
2023-04-25T15:19:22.248Z,3.92
2023-04-25T15:21:49.951Z,3.25
2023-04-25T15:24:18.925Z,2.63
2023-04-25T15:26:47.236Z,3.58
2023-04-25T15:29:14.737Z,4.28
2023-04-25T15:31:43.797Z,4.28
2023-04-25T15:34:14.547Z,3.33
2023-04-25T15:36:44.430Z,3.72
2023-04-25T15:39:12.029Z,5.55
2023-04-25T15:41:39.956Z,3.45
2023-04-25T15:44:08.627Z,3.42
2023-04-25T15:46:36.322Z,7.03
2023-04-25T15:49:05.550Z,5.55
2023-04-25T15:51:34.054Z,4.72
2023-04-25T15:54:02.655Z,3.45
2023-04-25T15:56:30.612Z,5.97
2023-04-25T15:58:58.134Z,6.60
2023-04-25T16:01:28.860Z,8.15
2023-04-25T16:03:58.218Z,6.70
2023-04-25T16:06:28.344Z,5.38
2023-04-25T16:08:56.223Z,4.30
2023-04-25T16:11:23.998Z,3.53
2023-04-25T16:13:51.884Z,4.88
2023-04-25T16:16:19.769Z,4.88
2023-04-25T16:18:47.682Z,4.35
2023-04-25T16:21:17.027Z,3.15
2023-04-25T16:23:46.390Z,3.85
2023-04-25T16:26:16.695Z,4.75
2023-04-25T16:28:44.354Z,3.60
2023-04-25T16:31:12.376Z,7.53
2023-04-25T16:33:39.998Z,6.85
2023-04-25T16:36:09.251Z,4.75
2023-04-25T16:38:39.683Z,4.88
2023-04-25T16:41:08.860Z,4.70
2023-04-25T16:43:36.431Z,5.60
2023-04-25T16:46:04.056Z,5.85
2023-04-25T16:48:31.677Z,8.00
2023-04-25T16:50:59.466Z,6.45
2023-04-25T16:53:27.120Z,6.57
2023-04-25T16:55:54.810Z,8.88
2023-04-25T16:58:23.991Z,8.70
2023-04-25T17:00:51.648Z,6.80
2023-04-25T17:03:19.283Z,7.40
2023-04-25T17:05:48.046Z,4.93
2023-04-25T17:08:15.720Z,8.45
2023-04-25T17:10:45.782Z,6.85
2023-04-25T17:13:13.331Z,5.65
2023-04-25T17:15:42.419Z,7.15
2023-04-25T17:18:10.809Z,7.03
2023-04-25T17:20:38.491Z,5.75
2023-04-25T17:23:06.220Z,10.57
2023-04-25T17:25:33.954Z,18.73
2023-04-25T17:28:01.568Z,15.38
2023-04-25T17:30:29.186Z,13.55
2023-04-25T17:32:58.089Z,8.18
2023-04-25T17:35:26.090Z,5.57
2023-04-25T17:37:53.678Z,7.93
2023-04-25T17:40:21.764Z,6.95
2023-04-25T17:42:49.518Z,7.90
2023-04-25T17:45:17.440Z,8.60
2023-04-25T17:47:45.352Z,8.02
2023-04-25T17:50:16.613Z,6.90
2023-04-25T17:52:44.972Z,8.23
2023-04-25T17:55:12.611Z,12.82
2023-04-25T17:57:40.180Z,11.48
2023-04-25T18:00:11.286Z,7.35
2023-04-25T18:02:45.165Z,8.10
2023-04-25T18:05:15.490Z,6.90
2023-04-25T18:07:43.376Z,7.10
2023-04-25T18:10:11.810Z,7.60
2023-04-25T18:12:39.478Z,5.57
2023-04-25T18:15:08.152Z,8.00
2023-04-25T18:17:39.958Z,8.77
2023-04-25T18:20:12.054Z,7.00
2023-04-25T18:22:41.037Z,7.72
2023-04-25T18:25:10.051Z,10.02
2023-04-25T18:27:38.126Z,8.18
2023-04-25T18:30:06.789Z,6.18
2023-04-25T18:32:34.663Z,5.95
2023-04-25T18:35:02.456Z,7.82
2023-04-25T18:37:30.059Z,8.00
2023-04-25T18:39:59.205Z,5.95
2023-04-25T18:42:26.775Z,7.28
2023-04-25T18:44:54.342Z,6.28
2023-04-25T18:47:21.869Z,6.53
2023-04-25T18:49:50.747Z,7.00
2023-04-25T18:52:19.016Z,7.60
2023-04-25T18:54:47.071Z,9.63
2023-04-25T18:57:17.654Z,6.38
2023-04-25T18:59:46.208Z,6.43
2023-04-25T19:02:16.013Z,6.85
2023-04-25T19:04:44.035Z,7.07
2023-04-25T19:07:11.676Z,8.63
2023-04-25T19:09:39.187Z,7.63
2023-04-25T19:12:07.189Z,7.88
2023-04-25T19:14:36.159Z,7.65
2023-04-25T19:17:04.459Z,7.25
2023-04-25T19:19:32.390Z,8.95
2023-04-25T19:21:59.932Z,9.20
2023-04-25T19:24:27.576Z,10.55
2023-04-25T19:26:55.178Z,8.55
2023-04-25T19:29:22.997Z,7.15
2023-04-25T19:31:51.998Z,5.65
2023-04-25T19:34:19.581Z,7.80
2023-04-25T19:36:47.095Z,7.40
2023-04-25T19:39:14.724Z,6.88
2023-04-25T19:41:42.365Z,8.23
2023-04-25T19:44:10.384Z,5.93
2023-04-25T19:46:38.131Z,6.50
2023-04-25T19:49:07.898Z,6.22
2023-04-25T19:51:36.600Z,9.40
2023-04-25T19:54:04.227Z,7.90
2023-04-25T19:56:32.503Z,5.88
2023-04-25T19:59:00.561Z,8.55
2023-04-25T20:01:28.354Z,10.60
2023-04-25T20:03:56.521Z,9.75
2023-04-25T20:06:27.009Z,6.88
2023-04-25T20:08:54.717Z,6.78
2023-04-25T20:11:22.539Z,7.70
2023-04-25T20:13:50.461Z,10.77
2023-04-25T20:16:20.243Z,20.30
2023-04-25T20:18:48.335Z,9.32
2023-04-25T20:21:18.402Z,7.75
2023-04-25T20:23:47.407Z,8.75
2023-04-25T20:26:15.210Z,6.10
2023-04-25T20:28:42.856Z,7.40
2023-04-25T20:31:11.577Z,11.15
2023-04-25T20:33:39.286Z,8.63
2023-04-25T20:36:07.597Z,7.93
2023-04-25T20:38:35.214Z,28.80
2023-04-25T20:41:04.556Z,17.02
2023-04-25T20:43:32.358Z,8.15
2023-04-25T20:46:00.438Z,6.45
2023-04-25T20:48:28.195Z,7.22
2023-04-25T20:50:56.207Z,7.80
2023-04-25T20:53:23.857Z,7.57
2023-04-25T20:55:51.538Z,6.28
2023-04-25T20:58:21.495Z,6.00
2023-04-25T21:00:50.419Z,7.47
2023-04-25T21:03:18.160Z,6.43
2023-04-25T21:05:46.492Z,6.82
2023-04-25T21:08:14.149Z,9.00
2023-04-25T21:10:42.093Z,9.10
2023-04-25T21:13:09.644Z,9.50
2023-04-25T21:15:38.818Z,5.63
2023-04-25T21:18:07.029Z,9.02
2023-04-25T21:20:34.833Z,5.80
2023-04-25T21:23:02.862Z,7.47
2023-04-25T21:25:31.749Z,8.15
2023-04-25T21:28:00.369Z,8.00
2023-04-25T21:30:28.059Z,6.85
2023-04-25T21:32:57.362Z,9.35
2023-04-25T21:35:25.542Z,7.90
2023-04-25T21:37:53.581Z,9.65
2023-04-25T21:40:21.891Z,6.15
2023-04-25T21:42:51.852Z,7.28
2023-04-25T21:45:20.403Z,5.43
2023-04-25T21:47:48.322Z,7.25
2023-04-25T21:50:18.020Z,8.85
2023-04-25T21:52:45.630Z,7.07
2023-04-25T21:55:13.337Z,7.35
2023-04-25T21:57:41.159Z,6.00
2023-04-25T22:00:21.830Z,6.28
2023-04-25T22:02:49.699Z,7.35
2023-04-25T22:05:20.389Z,7.97
2023-04-25T22:07:48.275Z,5.15
2023-04-25T22:10:16.243Z,7.65
2023-04-25T22:12:44.584Z,7.40
2023-04-25T22:15:13.574Z,9.18
2023-04-25T22:17:41.213Z,7.88
2023-04-25T22:20:14.198Z,6.75
2023-04-25T22:22:44.057Z,6.70
2023-04-25T22:25:12.827Z,7.85
2023-04-25T22:27:42.859Z,7.28
2023-04-25T22:30:13.020Z,7.10
2023-04-25T22:32:41.418Z,8.93
2023-04-25T22:35:10.286Z,7.45
2023-04-25T22:37:38.112Z,7.32
2023-04-25T22:40:08.962Z,8.23
2023-04-25T22:42:40.601Z,10.38
2023-04-25T22:45:09.350Z,9.45
2023-04-25T22:47:37.230Z,6.78
2023-04-25T22:50:07.406Z,9.63
2023-04-25T22:52:35.031Z,9.07
2023-04-25T22:55:04.286Z,6.63
2023-04-25T22:57:33.187Z,8.68
2023-04-25T23:00:01.573Z,6.85
2023-04-25T23:02:29.316Z,6.72
2023-04-25T23:04:56.933Z,10.77
2023-04-25T23:07:25.074Z,7.25
2023-04-25T23:09:52.599Z,6.53
2023-04-25T23:12:20.153Z,7.72
2023-04-25T23:14:51.847Z,8.07
2023-04-25T23:17:20.369Z,7.85
2023-04-25T23:19:48.250Z,7.53
2023-04-25T23:22:15.857Z,6.45
2023-04-25T23:24:43.623Z,7.53
2023-04-25T23:27:11.209Z,6.85
2023-04-25T23:29:40.448Z,8.32
2023-04-25T23:32:10.215Z,9.68
2023-04-25T23:34:37.831Z,13.20
2023-04-25T23:37:05.393Z,12.05
2023-04-25T23:39:33.077Z,9.23
2023-04-25T23:42:00.691Z,7.90
2023-04-25T23:44:28.216Z,9.40
2023-04-25T23:46:55.728Z,7.20
2023-04-25T23:49:24.602Z,6.05
2023-04-25T23:51:52.134Z,8.15
2023-04-25T23:54:19.704Z,7.43
2023-04-25T23:56:47.264Z,7.80
2023-04-25T23:59:14.809Z,9.13
